Terminal Aerodrome Forecast
Issued by NWS

Home | Current Version | Previous Version | Text Only | Print | Product List | Glossary On
Versions: 1 2 3 4 5 6 7 8 9 10 11 12 13 14 15 16 17 18 19 20 21 22 23 24 25 26 27 28 29 30
000
FTUS43 KDLH 291900 AAA
TAFHIB
TAF AMD
KHIB 291911Z 2919/3018 33018G28KT 5SM -SN BLSN OVC020
     FM292200 33014G24KT P6SM SCT015
     FM300300 32008KT P6SM SCT015
     FM301400 20006KT P6SM SCT015 OVC070=

USA.gov is the U.S. government's official web portal to all federal, state and local government web resources and services.